createdAt,value
2019-02-03T00:02:21.177Z,100552.70
2019-02-03T00:07:27.169Z,100550.55
2019-02-03T00:12:32.967Z,100555.12
2019-02-03T00:17:38.339Z,100558.08
2019-02-03T00:22:44.360Z,100564.91
2019-02-03T00:27:50.005Z,100578.36
2019-02-03T00:32:57.004Z,100595.64
2019-02-03T00:38:03.408Z,100596.97
2019-02-03T00:43:09.478Z,100602.25
2019-02-03T00:48:15.551Z,100610.84
2019-02-03T00:53:21.219Z,100621.22
2019-02-03T00:58:26.792Z,100629.90
2019-02-03T01:03:32.385Z,100632.92
2019-02-03T01:08:38.625Z,100647.16
2019-02-03T01:13:44.382Z,100651.92
2019-02-03T01:18:50.376Z,100648.32
2019-02-03T01:23:56.707Z,100649.36
2019-02-03T01:29:02.830Z,100662.01
2019-02-03T01:34:08.451Z,100677.98
2019-02-03T01:39:14.677Z,100687.85
2019-02-03T01:44:23.120Z,100684.06
2019-02-03T01:49:28.300Z,100696.89
2019-02-03T01:54:34.182Z,100700.97
2019-02-03T01:59:39.997Z,100716.09
2019-02-03T02:04:45.731Z,100718.45
2019-02-03T02:09:51.770Z,100722.19
2019-02-03T02:14:57.390Z,100727.55
2019-02-03T02:20:03.176Z,100729.95
2019-02-03T02:25:09.224Z,100730.77
2019-02-03T02:30:17.884Z,100739.38
2019-02-03T02:35:23.802Z,100746.31
2019-02-03T02:40:29.597Z,100753.62
2019-02-03T02:45:35.808Z,100758.70
2019-02-03T02:50:44.261Z,100766.84
2019-02-03T02:55:50.028Z,100769.80
2019-02-03T03:00:56.089Z,100772.83
2019-02-03T03:06:01.693Z,100776.41
2019-02-03T03:11:07.354Z,100786.63
2019-02-03T03:16:12.786Z,100783.68
2019-02-03T03:21:18.222Z,100780.94
2019-02-03T03:26:23.878Z,100790.48
2019-02-03T03:31:29.594Z,100792.91
2019-02-03T03:36:35.217Z,100796.93
2019-02-03T03:41:40.951Z,100805.12
2019-02-03T03:46:46.748Z,100809.42
2019-02-03T03:51:52.276Z,100804.51
2019-02-03T03:56:57.988Z,100805.83
2019-02-03T04:02:03.917Z,100800.91
2019-02-03T04:07:09.676Z,100822.19
2019-02-03T04:12:18.315Z,100849.52
2019-02-03T04:17:24.042Z,100876.03
2019-02-03T04:22:30.007Z,100902.25
2019-02-03T04:27:35.756Z,100922.08
2019-02-03T04:32:41.515Z,100944.29
2019-02-03T04:37:47.576Z,100945.17
2019-02-03T04:42:53.295Z,100957.66
2019-02-03T04:47:59.408Z,100981.58
2019-02-03T04:53:05.443Z,100978.31
2019-02-03T04:58:11.419Z,100994.58
2019-02-03T05:03:17.410Z,101003.61
2019-02-03T05:08:23.668Z,101013.84
2019-02-03T05:13:29.736Z,101026.94
2019-02-03T05:18:35.475Z,101035.31
2019-02-03T05:23:41.297Z,101037.75
2019-02-03T05:28:47.581Z,101055.40
2019-02-03T05:33:53.121Z,101054.64
2019-02-03T05:38:58.588Z,101058.59
2019-02-03T05:44:04.520Z,101064.71
2019-02-03T05:49:10.219Z,101069.06
2019-02-03T05:54:16.599Z,101066.97
2019-02-03T05:59:22.457Z,101072.23
2019-02-03T06:04:28.052Z,101068.43
2019-02-03T06:09:36.708Z,101069.39
2019-02-03T06:14:41.824Z,101080.17
2019-02-03T06:19:47.723Z,101079.16
2019-02-03T06:24:53.325Z,101080.95
2019-02-03T06:29:59.197Z,101098.75
2019-02-03T06:35:04.884Z,101099.70
2019-02-03T06:40:10.669Z,101107.42
2019-02-03T06:45:25.440Z,101114.23
2019-02-03T06:50:31.368Z,101104.66
2019-02-03T06:55:37.685Z,101129.55
2019-02-03T07:00:44.184Z,101129.02
2019-02-03T07:05:50.459Z,101128.09
2019-02-03T07:10:56.119Z,101136.16
2019-02-03T07:16:02.038Z,101137.89
2019-02-03T07:21:08.209Z,101141.27
2019-02-03T07:26:13.872Z,101140.97
2019-02-03T07:31:19.490Z,101151.05
2019-02-03T07:36:24.904Z,101170.47
2019-02-03T07:41:30.340Z,101175.80
2019-02-03T07:46:35.810Z,101187.41
2019-02-03T07:51:41.615Z,101191.20
2019-02-03T07:56:47.646Z,101203.91
2019-02-03T08:01:53.179Z,101211.94
2019-02-03T08:06:58.870Z,101231.19
2019-02-03T08:12:04.810Z,101235.81
2019-02-03T08:17:10.411Z,101237.95
2019-02-03T08:22:15.872Z,101248.06
2019-02-03T08:27:21.397Z,101255.91
2019-02-03T08:32:27.110Z,101257.81
2019-02-03T08:37:32.683Z,101274.37
2019-02-03T08:42:38.354Z,101282.80
2019-02-03T08:47:45.509Z,101289.02
2019-02-03T08:52:51.604Z,101296.58
2019-02-03T08:57:58.012Z,101303.23
2019-02-03T09:03:03.567Z,101303.63
2019-02-03T09:08:09.522Z,101316.30
2019-02-03T09:13:15.124Z,101324.91
2019-02-03T09:18:20.967Z,101332.84
2019-02-03T09:23:26.422Z,101342.88
2019-02-03T09:28:31.894Z,101341.62
2019-02-03T09:33:37.576Z,101345.66
2019-02-03T09:38:43.275Z,101352.12
2019-02-03T09:43:48.816Z,101368.29
2019-02-03T09:48:54.244Z,101376.28
2019-02-03T09:53:59.730Z,101382.50
2019-02-03T09:59:05.583Z,101382.84
2019-02-03T10:04:11.306Z,101396.48
2019-02-03T10:09:16.968Z,101399.87
2019-02-03T10:14:22.789Z,101401.34
2019-02-03T10:19:28.541Z,101414.70
2019-02-03T10:24:42.032Z,101419.55
2019-02-03T10:29:41.817Z,101411.06
2019-02-03T10:34:47.584Z,101425.69
2019-02-03T10:39:53.055Z,101420.69
2019-02-03T10:44:58.525Z,101421.72
2019-02-03T10:50:04.024Z,101426.55
2019-02-03T10:55:09.662Z,101432.52
2019-02-03T11:00:21.896Z,101447.24
2019-02-03T11:05:33.651Z,101456.16
2019-02-03T11:10:39.381Z,101461.32
2019-02-03T11:15:45.015Z,101469.16
2019-02-03T11:20:52.666Z,101469.33
2019-02-03T11:26:00.109Z,101478.24
2019-02-03T11:31:05.581Z,101492.26
2019-02-03T11:36:11.228Z,101497.70
2019-02-03T11:41:16.994Z,101493.53
2019-02-03T11:46:22.785Z,101504.87
2019-02-03T11:51:28.548Z,101510.85
2019-02-03T11:56:34.618Z,101522.26
2019-02-03T12:01:40.116Z,101527.30
2019-02-03T12:06:46.099Z,101533.75
2019-02-03T12:12:00.838Z,101542.36
2019-02-03T12:16:58.932Z,101534.22
2019-02-03T12:22:04.836Z,101536.17
2019-02-03T12:27:10.354Z,101538.67
2019-02-03T12:32:15.891Z,101545.09
2019-02-03T12:37:21.425Z,101541.61
2019-02-03T12:42:28.007Z,101543.63
2019-02-03T12:47:33.644Z,101553.05
2019-02-03T12:52:39.252Z,101553.17
2019-02-03T12:57:46.661Z,101559.22
2019-02-03T13:02:51.946Z,101559.58
2019-02-03T13:07:57.797Z,101562.27
2019-02-03T13:13:03.200Z,101572.11
2019-02-03T13:18:09.184Z,101566.31
2019-02-03T13:23:16.556Z,101574.20
2019-02-03T13:28:22.088Z,101579.78
2019-02-03T13:33:27.918Z,101593.36
2019-02-03T13:38:33.397Z,101587.88
2019-02-03T13:43:38.946Z,101594.89
2019-02-03T13:48:44.882Z,101597.16
2019-02-03T13:53:50.519Z,101613.15
2019-02-03T13:58:56.039Z,101615.33
2019-02-03T14:04:01.575Z,101622.59
2019-02-03T14:09:09.890Z,101625.91
2019-02-03T14:14:15.520Z,101629.73
2019-02-03T14:19:21.155Z,101637.00
2019-02-03T14:24:27.225Z,101640.45
2019-02-03T14:29:32.679Z,101642.12
2019-02-03T14:34:39.048Z,101652.16
2019-02-03T14:39:45.448Z,101646.81
2019-02-03T14:44:50.983Z,101648.31
2019-02-03T14:49:56.545Z,101648.23
2019-02-03T14:55:02.247Z,101659.55
2019-02-03T15:00:41.532Z,101659.11
2019-02-03T15:05:47.485Z,101662.28
2019-02-03T15:10:53.107Z,101666.75
2019-02-03T15:15:59.933Z,101679.56
2019-02-03T15:21:05.913Z,101684.16
2019-02-03T15:26:11.378Z,101689.78
2019-02-03T15:31:16.903Z,101699.62
2019-02-03T15:36:22.458Z,101703.16
2019-02-03T15:41:32.939Z,101708.23
2019-02-03T15:46:38.835Z,101717.91
2019-02-03T15:51:44.341Z,101717.67
2019-02-03T15:56:50.212Z,101721.48
2019-02-03T16:01:56.679Z,101736.23
2019-02-03T16:07:02.151Z,101741.97
2019-02-03T16:12:08.090Z,101744.36
2019-02-03T16:17:13.488Z,101748.40
2019-02-03T16:22:19.111Z,101756.04
2019-02-03T16:27:24.959Z,101768.34
2019-02-03T16:32:30.469Z,101788.34
2019-02-03T16:37:36.095Z,101791.77
2019-02-03T16:42:42.047Z,101799.26
2019-02-03T16:47:47.766Z,101809.37
2019-02-03T16:52:53.232Z,101809.91
2019-02-03T16:57:58.679Z,101820.34
2019-02-03T17:03:04.145Z,101821.09
2019-02-03T17:08:09.843Z,101830.06
2019-02-03T17:13:15.423Z,101835.14
2019-02-03T17:18:21.036Z,101847.48
2019-02-03T17:23:26.623Z,101857.08
2019-02-03T17:28:32.447Z,101856.52
2019-02-03T17:33:37.909Z,101871.31
2019-02-03T17:38:43.319Z,101876.89
2019-02-03T17:43:49.065Z,101885.66
2019-02-03T17:48:54.741Z,101895.61
2019-02-03T17:54:00.207Z,101899.95
2019-02-03T17:59:07.768Z,101909.23
2019-02-03T18:04:13.925Z,101921.31
2019-02-03T18:09:19.623Z,101918.45
2019-02-03T18:14:25.085Z,101926.48
2019-02-03T18:19:30.604Z,101932.64
2019-02-03T18:24:36.367Z,101934.98
2019-02-03T18:29:41.726Z,101931.10
2019-02-03T18:34:47.106Z,101933.48
2019-02-03T18:39:52.391Z,101943.59
2019-02-03T18:44:57.760Z,101957.55
2019-02-03T18:50:03.139Z,101962.61
2019-02-03T18:55:11.024Z,101975.18
2019-02-03T19:00:20.627Z,101974.53
2019-02-03T19:05:28.872Z,101969.27
2019-02-03T19:10:34.325Z,101979.43
2019-02-03T19:15:39.628Z,101989.28
2019-02-03T19:20:45.086Z,101995.76
2019-02-03T19:26:00.522Z,102004.72
2019-02-03T19:31:09.186Z,102011.16
2019-02-03T19:36:14.514Z,102027.38
2019-02-03T19:41:19.859Z,102028.84
2019-02-03T19:46:25.206Z,102035.12
2019-02-03T19:51:30.800Z,102033.70
2019-02-03T19:56:36.115Z,102041.27
2019-02-03T20:01:41.606Z,102036.57
2019-02-03T20:06:46.938Z,102042.03
2019-02-03T20:11:52.434Z,102051.92
2019-02-03T20:16:57.804Z,102066.78
2019-02-03T20:22:03.508Z,102071.34
2019-02-03T20:27:08.888Z,102081.86
2019-02-03T20:32:14.256Z,102091.02
2019-02-03T20:37:19.740Z,102091.34
2019-02-03T20:42:25.343Z,102104.06
2019-02-03T20:47:30.954Z,102112.27
2019-02-03T20:52:36.236Z,102117.91
2019-02-03T20:57:41.538Z,102112.98
2019-02-03T21:02:47.335Z,102116.03
2019-02-03T21:07:52.697Z,102126.86
2019-02-03T21:13:10.094Z,102133.39
2019-02-03T21:18:07.755Z,102136.80
2019-02-03T21:23:12.779Z,102134.98
2019-02-03T21:28:18.076Z,102143.91
2019-02-03T21:33:23.614Z,102147.59
2019-02-03T21:38:28.921Z,102162.98
2019-02-03T21:43:34.194Z,102169.14
2019-02-03T21:48:39.470Z,102167.15
2019-02-03T21:53:44.768Z,102167.45
2019-02-03T21:58:50.193Z,102176.05
2019-02-03T22:03:55.545Z,102192.73
2019-02-03T22:09:01.035Z,102193.89
2019-02-03T22:14:06.718Z,102187.68
2019-02-03T22:19:11.992Z,102187.84
2019-02-03T22:24:17.371Z,102191.89
2019-02-03T22:29:22.731Z,102198.24
2019-02-03T22:34:28.070Z,102198.11
2019-02-03T22:39:33.739Z,102204.70
2019-02-03T22:44:39.151Z,102216.72
2019-02-03T22:49:44.459Z,102224.84
2019-02-03T22:54:49.853Z,102230.73
2019-02-03T22:59:55.216Z,102220.94
2019-02-03T23:05:00.579Z,102228.88
2019-02-03T23:10:06.471Z,102222.22
2019-02-03T23:15:11.828Z,102231.41
2019-02-03T23:20:17.309Z,102230.88
2019-02-03T23:25:22.678Z,102227.22
2019-02-03T23:30:28.042Z,102225.53
2019-02-03T23:35:33.740Z,102227.30
2019-02-03T23:40:39.132Z,102226.42
2019-02-03T23:45:44.423Z,102225.38
2019-02-03T23:50:49.757Z,102216.22
2019-02-03T23:55:55.084Z,102209.37
